Helena, New York
Current Conditions -  °F | °C
As of 4:53 PM on Wednesday 26 Nov 2014 (Local Time) from KMSS Reporting Station
Overcast Overcast  
Wind Chill: 22°   Ceiling: 10000
Heat Index: 30°   Visibility: 10mi
Dew Point: 21°   Wind: 8mph
Humidity: 69%   Direction: 20°NNE
Pressure: 30.16"   Gusts: NA
Location:  44.92°N, 74.73°W
Report Text: KMSS 262153Z AUTO 02007KT 10SM OVC100 M01/M06 A3016 RMK AO2 SLP219 T10111061
Loading
Personal Weather Stations






























Interactive Weather Map New forecast layout! Learn more

10-Day Weather Forecast

Advertisements
Track Severe Weather on mobile